createdAt,value
2023-09-03T00:00:43.385Z,71.00
2023-09-03T00:02:06.602Z,71.37
2023-09-03T00:03:10.175Z,70.94
2023-09-03T00:04:13.547Z,71.10
2023-09-03T00:05:16.521Z,71.12
2023-09-03T00:06:19.652Z,71.16
2023-09-03T00:07:22.660Z,71.30
2023-09-03T00:08:26.045Z,71.27
2023-09-03T00:09:29.050Z,71.24
2023-09-03T00:10:36.673Z,71.22
2023-09-03T00:11:40.104Z,71.23
2023-09-03T00:12:43.142Z,71.25
2023-09-03T00:13:46.148Z,71.35
2023-09-03T00:14:49.130Z,71.36
2023-09-03T00:15:52.122Z,71.30
2023-09-03T00:16:55.219Z,71.17
2023-09-03T00:17:58.919Z,71.43
2023-09-03T00:19:02.000Z,71.47
2023-09-03T00:20:05.910Z,71.53
2023-09-03T00:21:09.016Z,71.28
2023-09-03T00:22:12.142Z,71.35
2023-09-03T00:23:15.273Z,71.43
2023-09-03T00:24:18.776Z,71.35
2023-09-03T00:25:22.528Z,71.49
2023-09-03T00:26:27.779Z,71.83
2023-09-03T00:27:33.651Z,71.68
2023-09-03T00:28:36.664Z,71.85
2023-09-03T00:29:41.870Z,71.86
2023-09-03T00:30:45.081Z,71.96
2023-09-03T00:31:48.016Z,72.07
2023-09-03T00:32:51.306Z,71.98
2023-09-03T00:33:54.864Z,71.90
2023-09-03T00:34:57.802Z,72.06
2023-09-03T00:36:02.655Z,71.93
2023-09-03T00:37:06.336Z,72.12
2023-09-03T00:38:09.764Z,72.26
2023-09-03T00:39:13.429Z,72.00
2023-09-03T00:40:16.567Z,72.42
2023-09-03T00:41:19.740Z,72.40
2023-09-03T00:42:22.938Z,72.27
2023-09-03T00:43:26.009Z,72.26
2023-09-03T00:44:29.015Z,72.45
2023-09-03T00:45:32.564Z,72.09
2023-09-03T00:46:35.788Z,72.19
2023-09-03T00:47:39.572Z,72.19
2023-09-03T00:48:43.821Z,72.49
2023-09-03T00:49:47.028Z,72.68
2023-09-03T00:50:52.664Z,72.56
2023-09-03T00:51:57.214Z,72.53
2023-09-03T00:53:00.305Z,72.37
2023-09-03T00:54:04.836Z,72.54
2023-09-03T00:55:08.158Z,72.68
2023-09-03T00:56:12.000Z,72.77
2023-09-03T00:57:15.176Z,72.50
2023-09-03T00:58:20.027Z,72.63
2023-09-03T00:59:25.185Z,72.78
2023-09-03T01:00:29.167Z,72.70
2023-09-03T01:01:32.299Z,72.81
2023-09-03T01:02:36.340Z,72.80
2023-09-03T01:03:40.275Z,72.85
2023-09-03T01:04:43.321Z,72.85
2023-09-03T01:05:46.281Z,72.83
2023-09-03T01:06:51.163Z,72.87
2023-09-03T01:07:55.122Z,72.96
2023-09-03T01:08:57.997Z,72.88
2023-09-03T01:10:02.390Z,73.00
2023-09-03T01:11:11.313Z,72.96
2023-09-03T01:12:26.182Z,73.05
2023-09-03T01:13:40.188Z,73.08
2023-09-03T01:15:14.418Z,73.21
2023-09-03T01:16:29.235Z,73.33
2023-09-03T01:17:47.662Z,73.26
2023-09-03T01:18:52.520Z,73.19
2023-09-03T01:19:58.430Z,73.34
2023-09-03T01:21:35.677Z,73.02
2023-09-03T01:23:00.824Z,73.32
2023-09-03T01:24:41.781Z,73.50
2023-09-03T01:25:50.888Z,73.57
2023-09-03T01:26:57.237Z,73.31
2023-09-03T01:28:24.178Z,73.19
2023-09-03T01:29:28.384Z,73.34
2023-09-03T01:30:32.120Z,73.32
2023-09-03T01:33:02.477Z,73.22
2023-09-03T01:34:06.377Z,73.40
2023-09-03T01:35:10.214Z,73.34
2023-09-03T01:36:15.256Z,73.34
2023-09-03T01:37:18.614Z,73.47
2023-09-03T01:38:22.481Z,73.52
2023-09-03T01:39:26.531Z,73.61
2023-09-03T01:40:29.519Z,73.50
2023-09-03T01:41:38.811Z,73.51
2023-09-03T01:42:43.466Z,73.68
2023-09-03T01:43:46.635Z,73.54
2023-09-03T01:44:49.769Z,73.65
2023-09-03T01:46:02.154Z,73.72
2023-09-03T01:47:16.276Z,73.83
2023-09-03T01:48:44.905Z,73.87
2023-09-03T01:50:02.425Z,74.07
2023-09-03T01:51:35.090Z,73.88
2023-09-03T01:53:06.078Z,74.10
2023-09-03T01:54:20.417Z,74.06
2023-09-03T01:55:26.641Z,73.85
2023-09-03T01:56:33.845Z,74.06
2023-09-03T01:58:00.857Z,74.15
2023-09-03T01:59:10.678Z,74.43
2023-09-03T02:00:17.092Z,74.11
2023-09-03T02:01:24.798Z,74.24
2023-09-03T02:02:29.820Z,74.19
2023-09-03T02:03:34.139Z,74.22
2023-09-03T02:04:37.304Z,74.33
2023-09-03T02:05:40.341Z,74.46
2023-09-03T02:06:47.915Z,74.36
2023-09-03T02:07:50.880Z,74.29
2023-09-03T02:08:54.025Z,74.43
2023-09-03T02:09:57.499Z,74.32
2023-09-03T02:11:00.638Z,74.36
2023-09-03T02:12:06.675Z,74.53
2023-09-03T02:13:09.663Z,74.47
2023-09-03T02:14:12.663Z,74.54
2023-09-03T02:15:16.215Z,74.68
2023-09-03T02:16:19.254Z,74.81
2023-09-03T02:17:22.453Z,74.70
2023-09-03T02:18:25.407Z,74.57
2023-09-03T02:19:28.568Z,74.71
2023-09-03T02:20:31.564Z,74.81
2023-09-03T02:21:34.659Z,74.68
2023-09-03T02:22:37.888Z,74.67
2023-09-03T02:23:40.834Z,74.68
2023-09-03T02:24:44.123Z,74.69
2023-09-03T02:25:47.273Z,74.70
2023-09-03T02:26:50.302Z,74.66
2023-09-03T02:27:53.414Z,74.69
2023-09-03T02:28:56.918Z,74.69
2023-09-03T02:29:59.910Z,74.58
2023-09-03T02:31:04.050Z,74.60
2023-09-03T02:32:07.546Z,74.58
2023-09-03T02:33:10.985Z,74.54
2023-09-03T02:34:15.013Z,74.51
2023-09-03T02:35:18.438Z,74.48
2023-09-03T02:36:21.369Z,74.46
2023-09-03T02:37:24.401Z,74.45
2023-09-03T02:38:27.873Z,74.54
2023-09-03T02:39:30.934Z,74.50
2023-09-03T02:40:33.910Z,74.53
2023-09-03T02:41:36.907Z,74.53
2023-09-03T02:42:39.875Z,74.47
2023-09-03T02:43:42.910Z,74.49
2023-09-03T02:44:45.890Z,74.44
2023-09-03T02:45:49.195Z,74.51
2023-09-03T02:46:53.527Z,74.57
2023-09-03T02:47:56.529Z,74.57
2023-09-03T02:48:59.840Z,74.58
2023-09-03T02:50:03.150Z,74.59
2023-09-03T02:51:06.155Z,74.60
2023-09-03T02:52:09.100Z,74.63
2023-09-03T02:53:12.058Z,74.63
2023-09-03T02:54:15.135Z,74.59
2023-09-03T02:55:17.940Z,74.63
2023-09-03T02:56:20.963Z,74.63
2023-09-03T02:57:23.915Z,74.65
2023-09-03T02:58:26.817Z,74.59
2023-09-03T02:59:30.285Z,74.57
2023-09-03T03:00:34.861Z,74.84
2023-09-03T03:01:37.938Z,74.87
2023-09-03T03:02:42.669Z,74.86
2023-09-03T03:03:46.152Z,74.96
2023-09-03T03:04:49.198Z,74.98
2023-09-03T03:05:54.909Z,75.03
2023-09-03T03:06:57.850Z,75.04
2023-09-03T03:08:04.050Z,75.14
2023-09-03T03:09:07.856Z,75.30
2023-09-03T03:10:11.662Z,75.20
2023-09-03T03:11:16.936Z,75.08
2023-09-03T03:12:25.521Z,75.07
2023-09-03T03:13:28.407Z,75.15
2023-09-03T03:14:31.413Z,75.20
2023-09-03T03:15:36.592Z,75.45
2023-09-03T03:16:39.675Z,75.56
2023-09-03T03:17:47.131Z,75.65
2023-09-03T03:18:51.779Z,75.53
2023-09-03T03:19:55.829Z,75.67
2023-09-03T03:21:06.654Z,75.51
2023-09-03T03:22:09.616Z,75.86
2023-09-03T03:23:12.566Z,75.84
2023-09-03T03:24:15.505Z,75.74
2023-09-03T03:25:19.427Z,75.82
2023-09-03T03:26:22.391Z,75.88
2023-09-03T03:27:25.546Z,75.82
2023-09-03T03:28:30.753Z,75.77
2023-09-03T03:29:33.755Z,75.77
2023-09-03T03:30:36.714Z,75.67
2023-09-03T03:31:39.758Z,75.69
2023-09-03T03:32:42.773Z,75.72
2023-09-03T03:33:47.651Z,75.61
2023-09-03T03:34:51.599Z,75.75
2023-09-03T03:35:54.871Z,75.67
2023-09-03T03:36:58.096Z,75.67
2023-09-03T03:38:01.015Z,75.63
2023-09-03T03:39:04.042Z,75.58
2023-09-03T03:40:07.735Z,75.62
2023-09-03T03:41:16.501Z,75.62
2023-09-03T03:42:19.944Z,75.61
2023-09-03T03:43:23.208Z,75.51
2023-09-03T03:44:26.195Z,75.54
2023-09-03T03:45:29.270Z,75.63
2023-09-03T03:46:32.228Z,75.60
2023-09-03T03:47:35.279Z,75.54
2023-09-03T03:48:38.206Z,75.60
2023-09-03T03:49:41.174Z,75.54
2023-09-03T03:50:44.052Z,75.55
2023-09-03T03:51:46.916Z,75.55
2023-09-03T03:52:49.948Z,75.60
2023-09-03T03:53:52.895Z,75.59
2023-09-03T03:54:56.166Z,75.64
2023-09-03T03:56:10.779Z,75.59
2023-09-03T03:57:13.910Z,75.64
2023-09-03T03:58:16.973Z,75.58
2023-09-03T03:59:19.877Z,75.58
2023-09-03T04:00:22.868Z,75.56
2023-09-03T04:01:25.931Z,75.59
2023-09-03T04:02:30.181Z,75.64
2023-09-03T04:03:33.178Z,75.61
2023-09-03T04:04:36.172Z,75.64
2023-09-03T04:05:39.061Z,75.59
2023-09-03T04:06:41.898Z,75.60
2023-09-03T04:07:44.927Z,75.60
2023-09-03T04:08:48.395Z,75.62
2023-09-03T04:09:51.372Z,75.70
2023-09-03T04:11:21.701Z,75.68
2023-09-03T04:12:24.625Z,75.83
2023-09-03T04:13:28.647Z,75.80
2023-09-03T04:14:31.598Z,75.73
2023-09-03T04:15:38.512Z,75.71
2023-09-03T04:16:41.556Z,75.72
2023-09-03T04:17:44.511Z,75.64
2023-09-03T04:18:47.991Z,75.73
2023-09-03T04:19:51.603Z,75.78
2023-09-03T04:20:57.004Z,75.76
2023-09-03T04:22:01.163Z,75.69
2023-09-03T04:23:04.975Z,75.69
2023-09-03T04:24:09.513Z,75.67
2023-09-03T04:25:13.095Z,75.66
2023-09-03T04:26:16.260Z,75.59
2023-09-03T04:27:23.810Z,75.71
2023-09-03T04:28:27.545Z,75.64
2023-09-03T04:29:30.348Z,75.68
2023-09-03T04:30:36.271Z,75.59
2023-09-03T04:31:41.558Z,75.61
2023-09-03T04:32:44.539Z,75.62
2023-09-03T04:33:47.679Z,75.58
2023-09-03T04:34:52.913Z,75.52
2023-09-03T04:36:02.243Z,75.54
2023-09-03T04:37:07.554Z,75.47
2023-09-03T04:38:11.024Z,75.38
2023-09-03T04:39:13.926Z,75.37
2023-09-03T04:40:18.245Z,75.36
2023-09-03T04:41:22.200Z,75.30
2023-09-03T04:42:28.224Z,75.22
2023-09-03T04:43:31.227Z,75.22
2023-09-03T04:44:34.638Z,75.15
2023-09-03T04:45:38.405Z,75.19
2023-09-03T04:46:42.044Z,75.13
2023-09-03T04:47:45.349Z,75.06
2023-09-03T04:48:49.189Z,75.01
2023-09-03T04:49:52.214Z,74.90
2023-09-03T04:50:55.217Z,74.85
2023-09-03T04:51:58.494Z,74.77
2023-09-03T04:53:01.334Z,74.80
2023-09-03T04:54:04.343Z,74.75
2023-09-03T04:55:07.618Z,74.69
2023-09-03T04:56:13.966Z,74.59
2023-09-03T04:57:19.280Z,74.44
2023-09-03T04:58:22.291Z,74.30
2023-09-03T04:59:25.590Z,74.20
2023-09-03T05:00:29.425Z,74.15
2023-09-03T05:01:35.168Z,74.06
2023-09-03T05:02:38.961Z,73.96
2023-09-03T05:03:42.090Z,73.92
2023-09-03T05:04:45.705Z,73.77
2023-09-03T05:05:48.642Z,73.62
2023-09-03T05:06:51.557Z,73.53
2023-09-03T05:07:57.408Z,73.45
2023-09-03T05:09:00.689Z,73.42
2023-09-03T05:10:14.844Z,73.31
2023-09-03T05:11:18.507Z,73.15
2023-09-03T05:12:23.497Z,72.97
2023-09-03T05:13:26.567Z,72.85
2023-09-03T05:14:29.459Z,72.63
2023-09-03T05:15:34.326Z,72.38
2023-09-03T05:16:38.397Z,72.34
2023-09-03T05:17:41.908Z,72.10
2023-09-03T05:18:45.261Z,72.15
2023-09-03T05:19:49.566Z,72.12
2023-09-03T05:20:52.525Z,72.08
2023-09-03T05:21:56.790Z,71.99
2023-09-03T05:22:59.783Z,71.87
2023-09-03T05:24:04.126Z,71.75
2023-09-03T05:25:08.275Z,71.75
2023-09-03T05:26:11.463Z,71.68
2023-09-03T05:27:16.664Z,71.54
2023-09-03T05:28:19.841Z,71.45
2023-09-03T05:29:22.957Z,71.26
2023-09-03T05:30:27.157Z,71.09
2023-09-03T05:31:31.902Z,70.89
2023-09-03T05:32:35.389Z,70.80
2023-09-03T05:33:39.145Z,70.41
2023-09-03T05:34:42.093Z,70.37
2023-09-03T05:35:45.131Z,70.31
2023-09-03T05:36:48.684Z,70.34
2023-09-03T05:37:52.848Z,70.22
2023-09-03T05:38:55.892Z,70.08
2023-09-03T05:39:59.286Z,69.89
2023-09-03T05:41:03.665Z,69.83
2023-09-03T05:42:06.637Z,69.83
2023-09-03T05:43:09.542Z,69.56
2023-09-03T05:44:13.522Z,69.60
2023-09-03T05:45:17.013Z,69.43
2023-09-03T05:46:20.412Z,69.30
2023-09-03T05:47:23.901Z,69.19
2023-09-03T05:48:26.842Z,69.46
2023-09-03T05:49:32.302Z,69.42
2023-09-03T05:50:35.242Z,69.42
2023-09-03T05:51:38.910Z,69.20
2023-09-03T05:52:43.834Z,69.22
2023-09-03T05:53:46.916Z,69.19
2023-09-03T05:54:49.867Z,69.09
2023-09-03T05:55:52.842Z,69.09
2023-09-03T05:56:55.855Z,68.81
2023-09-03T05:57:59.481Z,68.75
2023-09-03T05:59:06.954Z,68.64
2023-09-03T06:00:11.156Z,68.45
2023-09-03T06:01:25.210Z,68.33
2023-09-03T06:02:28.135Z,67.87
2023-09-03T06:03:31.237Z,67.63
2023-09-03T06:04:34.648Z,67.49
2023-09-03T06:05:37.574Z,67.42
2023-09-03T06:06:41.047Z,67.31
2023-09-03T06:07:44.085Z,67.19
2023-09-03T06:08:47.160Z,67.13
2023-09-03T06:09:50.043Z,67.01
2023-09-03T06:10:57.364Z,66.88
2023-09-03T06:12:00.452Z,66.92
2023-09-03T06:13:03.604Z,66.85
2023-09-03T06:14:06.638Z,66.75
2023-09-03T06:15:09.710Z,66.61
2023-09-03T06:16:12.622Z,66.62
2023-09-03T06:17:16.220Z,66.65
2023-09-03T06:18:19.655Z,66.55
2023-09-03T06:19:23.680Z,66.65
2023-09-03T06:20:26.695Z,66.73
2023-09-03T06:21:30.472Z,66.02
2023-09-03T06:22:33.482Z,65.98
2023-09-03T06:23:36.320Z,65.83
2023-09-03T06:24:39.372Z,65.92
2023-09-03T06:25:43.260Z,65.69
2023-09-03T06:26:46.458Z,65.77
2023-09-03T06:27:49.484Z,65.76
2023-09-03T06:28:52.380Z,65.40
2023-09-03T06:29:55.277Z,65.46
2023-09-03T06:31:00.216Z,65.56
2023-09-03T06:32:03.432Z,65.62
2023-09-03T06:33:06.719Z,65.62
2023-09-03T06:34:09.713Z,65.68
2023-09-03T06:35:12.603Z,65.70
2023-09-03T06:36:16.413Z,65.70
2023-09-03T06:37:19.544Z,65.87
2023-09-03T06:38:22.702Z,65.83
2023-09-03T06:39:27.580Z,65.99
2023-09-03T06:40:30.539Z,65.94
2023-09-03T06:41:33.428Z,65.84
2023-09-03T06:42:37.096Z,65.58
2023-09-03T06:43:40.104Z,65.53
2023-09-03T06:44:42.980Z,65.54
2023-09-03T06:45:45.966Z,65.53
2023-09-03T06:46:48.866Z,65.59
2023-09-03T06:47:51.880Z,65.42
2023-09-03T06:48:55.534Z,64.97
2023-09-03T06:49:58.536Z,64.54
2023-09-03T06:51:01.450Z,64.64
2023-09-03T06:52:04.697Z,64.49
2023-09-03T06:53:07.585Z,64.57
2023-09-03T06:54:14.612Z,64.53
2023-09-03T06:55:19.279Z,64.34
2023-09-03T06:56:22.656Z,64.48
2023-09-03T06:57:29.521Z,64.43
2023-09-03T06:58:32.765Z,64.57
2023-09-03T06:59:35.885Z,64.64
2023-09-03T07:00:38.894Z,64.62
2023-09-03T07:01:41.931Z,64.68
2023-09-03T07:02:44.974Z,64.86
2023-09-03T07:03:47.957Z,65.06
2023-09-03T07:04:51.247Z,65.07
2023-09-03T07:05:54.675Z,65.14
2023-09-03T07:07:00.276Z,65.11
2023-09-03T07:08:06.313Z,65.21
2023-09-03T07:09:11.982Z,65.38
2023-09-03T07:10:14.963Z,65.46
2023-09-03T07:11:17.838Z,65.59
2023-09-03T07:12:20.870Z,65.74
2023-09-03T07:13:23.739Z,65.83
2023-09-03T07:14:26.658Z,65.91
2023-09-03T07:15:29.636Z,65.99
2023-09-03T07:16:33.915Z,66.13
2023-09-03T07:17:36.813Z,66.42
2023-09-03T07:18:39.819Z,66.28
2023-09-03T07:19:43.026Z,66.02
2023-09-03T07:20:45.950Z,65.89
2023-09-03T07:21:48.999Z,65.99
2023-09-03T07:22:52.153Z,66.07
2023-09-03T07:23:55.232Z,66.12
2023-09-03T07:24:58.305Z,65.91
2023-09-03T07:26:12.243Z,66.02
2023-09-03T07:27:15.239Z,66.04
2023-09-03T07:28:18.160Z,66.02
2023-09-03T07:29:21.356Z,65.97
2023-09-03T07:30:24.396Z,65.83
2023-09-03T07:31:27.243Z,65.74
2023-09-03T07:32:30.250Z,65.52
2023-09-03T07:33:33.727Z,65.52
2023-09-03T07:34:36.696Z,65.30
2023-09-03T07:35:39.602Z,65.21
2023-09-03T07:36:43.391Z,64.72
2023-09-03T07:37:46.499Z,64.27
2023-09-03T07:38:49.380Z,64.30
2023-09-03T07:39:52.328Z,64.40
2023-09-03T07:40:55.237Z,64.37
2023-09-03T07:41:58.282Z,64.46
2023-09-03T07:43:01.131Z,64.57
2023-09-03T07:44:04.777Z,64.47
2023-09-03T07:45:08.453Z,64.18
2023-09-03T07:46:11.442Z,63.88
2023-09-03T07:47:14.516Z,63.88
2023-09-03T07:48:18.401Z,63.95
2023-09-03T07:49:21.935Z,64.11
2023-09-03T07:50:25.562Z,64.25
2023-09-03T07:51:29.135Z,64.43
2023-09-03T07:52:33.633Z,64.34
2023-09-03T07:53:37.913Z,64.30
2023-09-03T07:54:41.928Z,64.34
2023-09-03T07:55:46.232Z,64.26
2023-09-03T07:56:51.141Z,64.52
2023-09-03T07:58:00.255Z,64.50
2023-09-03T07:59:04.233Z,64.56
2023-09-03T08:00:09.888Z,64.42
2023-09-03T08:01:20.711Z,64.26
2023-09-03T08:02:24.469Z,64.21
2023-09-03T08:03:33.714Z,64.12
2023-09-03T08:04:36.681Z,64.07
2023-09-03T08:05:39.644Z,64.21
2023-09-03T08:06:42.810Z,63.49
2023-09-03T08:07:46.902Z,63.33
2023-09-03T08:08:54.735Z,63.16
2023-09-03T08:09:57.866Z,63.09
2023-09-03T08:11:01.093Z,62.76
2023-09-03T08:12:04.239Z,62.54
2023-09-03T08:13:07.257Z,62.52
2023-09-03T08:14:10.204Z,62.55
2023-09-03T08:15:14.555Z,62.52
2023-09-03T08:16:17.450Z,61.97
2023-09-03T08:17:21.810Z,61.81
2023-09-03T08:18:24.685Z,61.64
2023-09-03T08:19:27.770Z,61.12
2023-09-03T08:20:30.808Z,61.15
2023-09-03T08:21:33.641Z,61.31
2023-09-03T08:22:36.735Z,61.45
2023-09-03T08:23:41.772Z,60.93
2023-09-03T08:24:44.603Z,60.36
2023-09-03T08:25:47.740Z,60.00
2023-09-03T08:26:50.573Z,60.18
2023-09-03T08:27:53.532Z,59.80
2023-09-03T08:28:56.444Z,59.94
2023-09-03T08:30:00.269Z,59.71
2023-09-03T08:31:04.069Z,59.92
2023-09-03T08:32:07.533Z,59.86
2023-09-03T08:33:11.652Z,59.62
2023-09-03T08:34:15.281Z,58.75
2023-09-03T08:35:18.298Z,58.23
2023-09-03T08:36:23.010Z,57.94
2023-09-03T08:37:27.945Z,57.96
2023-09-03T08:38:31.028Z,58.97
2023-09-03T08:39:33.905Z,59.32
2023-09-03T08:40:37.812Z,59.79
2023-09-03T08:41:41.522Z,60.28
2023-09-03T08:42:47.919Z,60.81
2023-09-03T08:43:56.173Z,60.54
2023-09-03T08:45:05.846Z,60.65
2023-09-03T08:46:11.689Z,60.82
2023-09-03T08:47:18.126Z,61.48
2023-09-03T08:48:21.076Z,61.56
2023-09-03T08:49:24.216Z,61.81
2023-09-03T08:50:27.811Z,61.08
2023-09-03T08:51:32.931Z,61.76
2023-09-03T08:52:38.359Z,61.73
2023-09-03T08:53:41.944Z,61.45
2023-09-03T08:54:44.992Z,61.86
2023-09-03T08:55:47.919Z,61.92
2023-09-03T08:56:50.846Z,61.34
2023-09-03T08:57:55.456Z,61.74
2023-09-03T08:58:58.602Z,61.22
2023-09-03T09:00:08.873Z,61.27
2023-09-03T09:01:14.577Z,61.43
2023-09-03T09:02:18.540Z,61.73
2023-09-03T09:03:26.684Z,61.96
2023-09-03T09:04:31.499Z,61.28
2023-09-03T09:05:37.062Z,59.60
2023-09-03T09:06:44.925Z,60.15
2023-09-03T09:07:49.460Z,60.89
2023-09-03T09:08:53.308Z,61.13
2023-09-03T09:10:00.031Z,60.92
2023-09-03T09:11:11.467Z,61.11
2023-09-03T09:12:23.490Z,61.64
2023-09-03T09:13:28.078Z,61.70
2023-09-03T09:15:01.203Z,61.49
2023-09-03T09:16:04.419Z,61.52
2023-09-03T09:17:14.274Z,61.08
2023-09-03T09:18:17.351Z,61.06
2023-09-03T09:19:20.708Z,60.70
2023-09-03T09:20:23.955Z,60.95
2023-09-03T09:21:26.990Z,60.82
2023-09-03T09:22:29.931Z,60.51
2023-09-03T09:23:32.995Z,60.66
2023-09-03T09:24:45.581Z,60.06
2023-09-03T09:25:48.588Z,59.45
2023-09-03T09:26:51.492Z,59.77
2023-09-03T09:27:55.821Z,59.76
2023-09-03T09:29:00.551Z,59.49
2023-09-03T09:30:11.988Z,59.24
2023-09-03T09:31:17.005Z,59.48
2023-09-03T09:32:22.895Z,59.27
2023-09-03T09:33:27.477Z,58.85
2023-09-03T09:34:42.961Z,58.46
2023-09-03T09:35:45.798Z,57.59
2023-09-03T09:36:57.704Z,57.61
2023-09-03T09:38:08.109Z,57.37
2023-09-03T09:39:11.031Z,56.55
2023-09-03T09:40:15.292Z,56.18
2023-09-03T09:41:28.446Z,55.96
2023-09-03T09:42:31.503Z,55.83
2023-09-03T09:43:47.701Z,55.43
2023-09-03T09:44:53.546Z,54.92
2023-09-03T09:45:56.895Z,55.20
2023-09-03T09:47:23.157Z,55.73
2023-09-03T09:48:29.926Z,55.62
2023-09-03T09:49:56.724Z,55.02
2023-09-03T09:51:01.682Z,54.13
2023-09-03T09:52:06.981Z,54.02
2023-09-03T09:53:25.694Z,54.19
2023-09-03T09:54:42.704Z,53.92
2023-09-03T09:55:46.343Z,53.25
2023-09-03T09:56:51.782Z,52.92
2023-09-03T09:57:57.257Z,53.14
2023-09-03T10:00:45.145Z,53.19
2023-09-03T10:01:53.535Z,53.59
2023-09-03T10:02:59.685Z,53.52
2023-09-03T10:04:05.226Z,53.72
2023-09-03T10:05:11.484Z,53.90
2023-09-03T10:06:22.898Z,53.59
2023-09-03T10:07:27.022Z,53.99
2023-09-03T10:08:32.468Z,53.69
2023-09-03T10:09:42.135Z,53.30
2023-09-03T10:10:46.764Z,52.90
2023-09-03T10:11:51.505Z,52.70
2023-09-03T10:12:54.926Z,52.95
2023-09-03T10:13:57.840Z,53.13
2023-09-03T10:15:02.095Z,53.39
2023-09-03T10:16:09.646Z,53.93
2023-09-03T10:17:16.957Z,54.19
2023-09-03T10:18:21.853Z,53.59
2023-09-03T10:19:30.396Z,53.77
2023-09-03T10:20:35.049Z,53.87
2023-09-03T10:21:52.602Z,53.48
2023-09-03T10:22:59.275Z,52.22
2023-09-03T10:24:07.003Z,51.45
2023-09-03T10:25:15.565Z,51.69
2023-09-03T10:26:27.544Z,51.50
2023-09-03T10:27:36.507Z,51.93
2023-09-03T10:28:43.235Z,51.92
2023-09-03T10:29:48.588Z,52.12
2023-09-03T10:30:55.394Z,52.46
2023-09-03T10:32:04.106Z,52.77
2023-09-03T10:33:10.257Z,53.44
2023-09-03T10:34:16.130Z,52.24
2023-09-03T10:35:19.356Z,52.80
2023-09-03T10:36:23.413Z,52.66
2023-09-03T10:37:40.573Z,52.75
2023-09-03T10:38:45.968Z,52.87
2023-09-03T10:39:49.151Z,51.66
2023-09-03T10:41:18.204Z,51.35
2023-09-03T10:42:25.157Z,51.78
2023-09-03T10:43:28.221Z,51.52
2023-09-03T10:44:34.421Z,51.97
2023-09-03T10:45:37.401Z,51.42
2023-09-03T10:47:00.078Z,51.16
2023-09-03T10:48:05.801Z,51.05
2023-09-03T10:49:08.808Z,50.88
2023-09-03T10:50:12.260Z,49.62
2023-09-03T10:51:36.612Z,49.55
2023-09-03T10:52:41.243Z,49.88
2023-09-03T10:53:44.351Z,49.45
2023-09-03T10:55:07.267Z,49.99
2023-09-03T10:56:18.572Z,50.24
2023-09-03T10:57:21.795Z,50.25
2023-09-03T10:58:31.782Z,49.87
2023-09-03T10:59:54.423Z,49.56
2023-09-03T11:01:27.905Z,49.86
2023-09-03T11:02:31.017Z,49.57
2023-09-03T11:03:47.697Z,49.47
2023-09-03T11:05:20.783Z,50.18
2023-09-03T11:06:26.000Z,50.60
2023-09-03T11:07:28.888Z,50.33
2023-09-03T11:08:32.777Z,49.79
2023-09-03T11:09:35.768Z,49.68
2023-09-03T11:10:39.931Z,48.46
2023-09-03T11:11:42.876Z,47.84
2023-09-03T11:12:47.344Z,47.88
2023-09-03T11:13:51.420Z,46.57
2023-09-03T11:14:56.000Z,46.34
2023-09-03T11:15:58.978Z,46.24
2023-09-03T11:17:09.457Z,46.24
2023-09-03T11:18:12.408Z,46.59
2023-09-03T11:19:15.284Z,46.18
2023-09-03T11:20:49.321Z,45.19
2023-09-03T11:21:53.580Z,46.14
2023-09-03T11:22:56.672Z,45.48
2023-09-03T11:24:06.696Z,46.25
2023-09-03T11:25:09.671Z,46.02
2023-09-03T11:26:15.625Z,46.06
2023-09-03T11:27:18.674Z,45.29
2023-09-03T11:28:21.530Z,45.66
2023-09-03T11:29:26.108Z,45.57
2023-09-03T11:30:30.406Z,45.95
2023-09-03T11:31:47.329Z,46.34
2023-09-03T11:32:50.241Z,47.05
2023-09-03T11:33:53.496Z,47.68
2023-09-03T11:35:00.904Z,48.14
2023-09-03T11:36:04.492Z,47.18
2023-09-03T11:37:07.684Z,47.63
2023-09-03T11:38:11.757Z,47.95
2023-09-03T11:39:18.369Z,48.26
2023-09-03T11:40:30.052Z,48.12
2023-09-03T11:41:33.108Z,48.36
2023-09-03T11:42:36.265Z,47.84
2023-09-03T11:43:40.179Z,48.46
2023-09-03T11:44:43.211Z,48.88
2023-09-03T11:45:47.030Z,48.99
2023-09-03T11:47:00.235Z,48.89
2023-09-03T11:48:07.457Z,49.06
2023-09-03T11:49:10.464Z,48.87
2023-09-03T11:50:15.104Z,49.17
2023-09-03T11:51:27.843Z,48.81
2023-09-03T11:52:31.938Z,49.22
2023-09-03T11:53:44.294Z,50.00
2023-09-03T11:54:47.260Z,49.45
2023-09-03T11:55:54.070Z,48.42
2023-09-03T11:57:00.698Z,47.68
2023-09-03T11:58:07.409Z,48.22
2023-09-03T11:59:11.193Z,47.97
2023-09-03T12:00:16.047Z,48.09
2023-09-03T12:01:19.429Z,48.32
2023-09-03T12:02:23.153Z,48.18
2023-09-03T12:03:26.550Z,47.61
2023-09-03T12:04:32.895Z,47.85
2023-09-03T12:05:36.933Z,47.43
2023-09-03T12:06:41.708Z,47.87
2023-09-03T12:07:44.825Z,47.97
2023-09-03T12:08:47.647Z,48.57
2023-09-03T12:09:53.481Z,47.87
2023-09-03T12:10:56.400Z,48.19
2023-09-03T12:11:59.292Z,48.72
2023-09-03T12:13:03.521Z,48.45
2023-09-03T12:14:12.703Z,48.52
2023-09-03T12:15:22.682Z,48.73
2023-09-03T12:16:26.347Z,48.89
2023-09-03T12:17:29.855Z,48.70
2023-09-03T12:18:33.414Z,48.76
2023-09-03T12:19:43.383Z,48.95
2023-09-03T12:20:46.985Z,48.53
2023-09-03T12:21:53.517Z,48.66
2023-09-03T12:22:56.481Z,48.58
2023-09-03T12:23:59.419Z,49.27
2023-09-03T12:25:06.523Z,48.71
2023-09-03T12:26:16.789Z,48.34
2023-09-03T12:27:19.761Z,48.31
2023-09-03T12:28:38.963Z,48.69
2023-09-03T12:29:52.285Z,48.42
2023-09-03T12:30:58.433Z,48.08
2023-09-03T12:32:01.454Z,47.21
2023-09-03T12:33:04.573Z,47.38
2023-09-03T12:34:07.623Z,47.98
2023-09-03T12:35:20.497Z,48.11
2023-09-03T12:36:23.577Z,47.59
2023-09-03T12:37:39.428Z,47.22
2023-09-03T12:38:55.726Z,47.49
2023-09-03T12:39:58.587Z,45.39
2023-09-03T12:41:01.513Z,45.97
2023-09-03T12:42:08.589Z,45.93
2023-09-03T12:43:11.510Z,44.82
2023-09-03T12:44:16.445Z,44.38
2023-09-03T12:45:19.418Z,44.92
2023-09-03T12:46:22.867Z,45.13
2023-09-03T12:47:25.777Z,45.31
2023-09-03T12:48:30.727Z,45.11
2023-09-03T12:49:33.703Z,45.29
2023-09-03T12:50:36.565Z,45.86
2023-09-03T12:51:40.822Z,46.13
2023-09-03T12:52:44.551Z,46.52
2023-09-03T12:53:48.682Z,46.68
2023-09-03T12:54:51.975Z,46.17
2023-09-03T12:55:56.817Z,46.28
2023-09-03T12:57:01.453Z,46.67
2023-09-03T12:58:04.697Z,46.37
2023-09-03T12:59:07.745Z,46.07
2023-09-03T13:00:11.599Z,45.87
2023-09-03T13:01:14.774Z,45.96
2023-09-03T13:02:19.211Z,46.34
2023-09-03T13:03:22.720Z,45.93
2023-09-03T13:04:26.145Z,46.29
2023-09-03T13:05:29.194Z,46.52
2023-09-03T13:06:32.294Z,46.56
2023-09-03T13:07:35.249Z,45.98
2023-09-03T13:08:39.408Z,43.30
2023-09-03T13:09:42.307Z,42.52
2023-09-03T13:10:45.186Z,42.79
2023-09-03T13:11:48.304Z,43.78
2023-09-03T13:12:51.162Z,44.21
2023-09-03T13:13:54.128Z,43.71
2023-09-03T13:14:57.134Z,43.31
2023-09-03T13:16:01.547Z,42.74
2023-09-03T13:17:04.613Z,42.59
2023-09-03T13:18:07.770Z,41.79
2023-09-03T13:19:10.759Z,41.03
2023-09-03T13:20:13.961Z,40.99
2023-09-03T13:21:17.537Z,41.25
2023-09-03T13:22:20.434Z,41.63
2023-09-03T13:23:23.728Z,40.87
2023-09-03T13:24:26.849Z,40.82
2023-09-03T13:25:35.171Z,40.69
2023-09-03T13:26:38.587Z,39.79
2023-09-03T13:27:41.391Z,39.79
2023-09-03T13:28:44.334Z,39.64
2023-09-03T13:29:47.282Z,38.74
2023-09-03T13:31:05.233Z,38.83
2023-09-03T13:32:10.480Z,39.16
2023-09-03T13:33:13.448Z,38.41
2023-09-03T13:34:16.495Z,38.33
2023-09-03T13:35:19.664Z,37.81
2023-09-03T13:36:23.161Z,37.17
2023-09-03T13:37:26.109Z,37.71
2023-09-03T13:38:29.030Z,37.49
2023-09-03T13:39:33.904Z,36.38
2023-09-03T13:40:39.856Z,36.04
2023-09-03T13:41:42.735Z,35.85
2023-09-03T13:42:45.554Z,35.56
2023-09-03T13:43:48.985Z,36.02
2023-09-03T13:44:54.784Z,35.86
2023-09-03T13:45:59.874Z,36.06
2023-09-03T13:47:03.081Z,36.00
2023-09-03T13:48:06.563Z,35.49
2023-09-03T13:49:11.031Z,35.81
2023-09-03T13:50:13.932Z,36.26
2023-09-03T13:51:16.873Z,36.40
2023-09-03T13:52:19.841Z,36.68
2023-09-03T13:53:23.117Z,36.62
2023-09-03T13:54:26.204Z,37.26
2023-09-03T13:55:29.470Z,37.33
2023-09-03T13:56:33.080Z,36.88
2023-09-03T13:57:36.192Z,37.02
2023-09-03T13:58:39.059Z,36.68
2023-09-03T13:59:43.022Z,36.55
2023-09-03T14:00:46.060Z,36.26
2023-09-03T14:01:49.182Z,36.50
2023-09-03T14:02:52.444Z,36.04
2023-09-03T14:03:56.326Z,35.78